createdAt,value
2022-10-05T00:00:00.697Z,6.00
2022-10-05T00:05:17.386Z,5.90
2022-10-05T00:10:21.132Z,5.90
2022-10-05T00:15:24.324Z,6.00
2022-10-05T00:20:27.488Z,5.90
2022-10-05T00:25:30.381Z,6.00
2022-10-05T00:30:34.289Z,6.10
2022-10-05T00:35:37.488Z,6.50
2022-10-05T00:41:02.609Z,6.80
2022-10-05T00:46:08.915Z,6.80
2022-10-05T00:51:43.884Z,7.00
2022-10-05T00:57:01.167Z,6.90
2022-10-05T01:02:12.553Z,6.70
2022-10-05T01:07:35.518Z,6.60
2022-10-05T01:12:49.129Z,6.60
2022-10-05T01:18:18.489Z,6.40
2022-10-05T01:23:30.805Z,6.30
2022-10-05T01:28:41.377Z,6.20
2022-10-05T01:34:12.851Z,6.10
2022-10-05T01:39:50.982Z,6.00
2022-10-05T01:45:02.763Z,6.20
2022-10-05T01:50:21.288Z,6.40
2022-10-05T01:55:42.925Z,6.30
2022-10-05T02:00:58.930Z,6.50
2022-10-05T02:06:10.008Z,6.50
2022-10-05T02:11:17.969Z,6.70
2022-10-05T02:16:31.790Z,6.60
2022-10-05T02:21:36.718Z,6.90
2022-10-05T02:26:40.908Z,7.00
2022-10-05T02:31:52.367Z,7.00
2022-10-05T02:37:29.434Z,6.90
2022-10-05T02:42:34.942Z,6.80
2022-10-05T02:48:06.629Z,6.60
2022-10-05T02:53:39.406Z,6.50
2022-10-05T02:59:00.379Z,6.50
2022-10-05T03:04:31.182Z,6.50
2022-10-05T03:09:42.548Z,6.30
2022-10-05T03:15:13.275Z,6.30
2022-10-05T03:20:28.080Z,6.20
2022-10-05T03:25:50.814Z,6.20
2022-10-05T03:30:56.624Z,6.10
2022-10-05T03:36:07.252Z,6.10
2022-10-05T03:41:22.621Z,6.00
2022-10-05T03:46:32.778Z,5.90
2022-10-05T03:51:43.697Z,5.90
2022-10-05T03:56:55.679Z,5.90
2022-10-05T04:02:13.254Z,5.90
2022-10-05T04:07:46.985Z,5.90
2022-10-05T04:13:07.443Z,5.90
2022-10-05T04:18:31.249Z,5.70
2022-10-05T04:23:44.109Z,5.40
2022-10-05T04:29:02.889Z,5.20
2022-10-05T04:34:35.550Z,5.20
2022-10-05T04:39:56.140Z,5.20
2022-10-05T04:45:11.261Z,5.00
2022-10-05T04:50:34.055Z,5.10
2022-10-05T04:55:56.219Z,5.10
2022-10-05T05:01:14.013Z,5.10
2022-10-05T05:06:38.540Z,4.90
2022-10-05T05:11:53.310Z,4.90
2022-10-05T05:17:16.940Z,4.90
2022-10-05T05:22:40.770Z,5.00
2022-10-05T05:27:58.802Z,5.10
2022-10-05T05:33:25.473Z,5.60
2022-10-05T05:38:43.181Z,5.90
2022-10-05T05:44:04.810Z,6.00
2022-10-05T05:49:17.164Z,6.20
2022-10-05T05:54:31.670Z,6.50
2022-10-05T05:59:56.921Z,7.00
2022-10-05T06:05:10.137Z,7.70
2022-10-05T06:10:29.038Z,9.20
2022-10-05T06:15:47.750Z,9.00
2022-10-05T06:21:41.753Z,9.20
2022-10-05T06:27:09.390Z,9.10
2022-10-05T06:32:25.522Z,9.10
2022-10-05T06:37:47.614Z,9.20
2022-10-05T06:43:06.130Z,9.40
2022-10-05T06:48:19.035Z,9.90
2022-10-05T06:54:04.912Z,10.50
2022-10-05T06:59:24.350Z,11.10
2022-10-05T07:04:40.511Z,11.70
2022-10-05T07:09:47.290Z,11.70
2022-10-05T07:15:25.311Z,12.00
2022-10-05T07:20:48.897Z,12.30
2022-10-05T07:25:54.322Z,12.90
2022-10-05T07:31:06.451Z,13.60
2022-10-05T07:36:42.233Z,13.20
2022-10-05T07:41:51.728Z,13.10
2022-10-05T07:47:19.849Z,13.20
2022-10-05T07:52:39.291Z,13.50
2022-10-05T07:58:21.147Z,13.70
2022-10-05T08:03:40.685Z,13.80
2022-10-05T08:08:57.729Z,13.70
2022-10-05T08:14:29.790Z,13.90
2022-10-05T08:19:38.675Z,13.90
2022-10-05T08:25:18.663Z,14.10
2022-10-05T08:30:21.775Z,15.80
2022-10-05T08:35:39.780Z,17.70
2022-10-05T08:41:12.623Z,18.00
2022-10-05T08:46:24.620Z,19.30
2022-10-05T08:51:59.570Z,18.80
2022-10-05T08:57:55.263Z,19.80
2022-10-05T09:03:16.386Z,19.80
2022-10-05T09:08:36.939Z,18.60
2022-10-05T09:14:09.900Z,18.90
2022-10-05T09:20:15.442Z,17.80
2022-10-05T09:25:31.190Z,17.50
2022-10-05T09:30:49.382Z,17.70
2022-10-05T09:36:25.188Z,17.70
2022-10-05T09:42:05.062Z,18.00
2022-10-05T09:47:14.015Z,18.80
2022-10-05T09:52:38.461Z,19.40
2022-10-05T09:57:50.834Z,19.00
2022-10-05T10:03:20.828Z,18.60
2022-10-05T10:08:26.526Z,19.20
2022-10-05T10:14:15.481Z,19.40
2022-10-05T10:19:35.961Z,18.90
2022-10-05T10:25:12.104Z,19.60
2022-10-05T10:30:48.427Z,19.50
2022-10-05T10:36:13.712Z,19.40
2022-10-05T10:41:30.445Z,19.50
2022-10-05T10:46:57.571Z,19.60
2022-10-05T10:52:18.348Z,20.10
2022-10-05T10:58:02.138Z,20.60
2022-10-05T11:03:34.591Z,22.10
2022-10-05T11:09:05.520Z,22.20
2022-10-05T11:14:23.855Z,21.90
2022-10-05T11:20:04.494Z,22.50
2022-10-05T11:25:17.159Z,22.20
2022-10-05T11:30:41.541Z,22.00
2022-10-05T11:36:18.075Z,22.00
2022-10-05T11:41:41.532Z,22.40
2022-10-05T11:47:02.420Z,22.10
2022-10-05T11:52:21.200Z,22.50
2022-10-05T11:57:53.720Z,22.20
2022-10-05T12:03:21.494Z,21.80
2022-10-05T12:08:52.683Z,21.60
2022-10-05T12:14:11.229Z,21.50
2022-10-05T12:19:18.880Z,21.40
2022-10-05T12:24:28.784Z,21.10
2022-10-05T12:29:51.838Z,20.90
2022-10-05T12:35:05.040Z,20.70
2022-10-05T12:40:41.455Z,21.20
2022-10-05T12:46:14.550Z,21.00
2022-10-05T12:51:23.134Z,21.70
2022-10-05T12:56:48.071Z,21.40
2022-10-05T13:02:16.703Z,21.20
2022-10-05T13:07:40.284Z,21.60
2022-10-05T13:13:04.195Z,20.90
2022-10-05T13:18:29.142Z,20.70
2022-10-05T13:24:01.330Z,20.70
2022-10-05T13:29:16.914Z,20.80
2022-10-05T13:34:19.989Z,20.60
2022-10-05T13:39:46.763Z,20.20
2022-10-05T13:45:25.640Z,19.60
2022-10-05T13:50:33.637Z,19.40
2022-10-05T13:56:00.197Z,19.20
2022-10-05T14:01:07.975Z,18.60
2022-10-05T14:06:30.933Z,18.40
2022-10-05T14:11:35.864Z,18.50
2022-10-05T14:16:54.985Z,18.40
2022-10-05T14:22:15.541Z,18.30
2022-10-05T14:27:30.361Z,18.40
2022-10-05T14:32:48.020Z,18.30
2022-10-05T14:38:00.710Z,18.30
2022-10-05T14:43:16.204Z,18.10
2022-10-05T14:48:19.253Z,18.00
2022-10-05T14:53:26.512Z,17.80
2022-10-05T14:58:50.881Z,17.60
2022-10-05T15:04:16.569Z,17.40
2022-10-05T15:09:19.534Z,17.30
2022-10-05T15:14:34.704Z,16.80
2022-10-05T15:20:02.333Z,16.60
2022-10-05T15:25:28.261Z,16.40
2022-10-05T15:30:33.346Z,16.10
2022-10-05T15:35:45.059Z,15.80
2022-10-05T15:41:07.193Z,15.60
2022-10-05T15:46:24.992Z,15.30
2022-10-05T15:51:37.419Z,15.00
2022-10-05T15:56:47.668Z,14.80
2022-10-05T16:02:01.249Z,14.50
2022-10-05T16:07:23.167Z,14.30
2022-10-05T16:12:43.061Z,13.90
2022-10-05T16:18:32.962Z,13.70
2022-10-05T16:24:17.210Z,13.40
2022-10-05T16:29:35.846Z,13.10
2022-10-05T16:35:17.274Z,12.90
2022-10-05T16:40:48.121Z,12.80
2022-10-05T16:46:29.990Z,12.70
2022-10-05T16:52:00.049Z,12.50
2022-10-05T16:57:02.995Z,12.50
2022-10-05T17:02:43.764Z,12.50
2022-10-05T17:08:10.170Z,12.50
2022-10-05T17:13:43.791Z,12.50
2022-10-05T17:18:58.762Z,12.40
2022-10-05T17:24:32.581Z,12.30
2022-10-05T17:30:02.379Z,12.30
2022-10-05T17:35:19.288Z,12.10
2022-10-05T17:40:41.573Z,12.00
2022-10-05T17:45:44.374Z,11.70
2022-10-05T17:51:07.840Z,11.60
2022-10-05T17:56:10.919Z,11.60
2022-10-05T18:01:38.060Z,11.60
2022-10-05T18:06:52.985Z,11.70
2022-10-05T18:12:17.255Z,11.80
2022-10-05T18:17:47.281Z,11.80
2022-10-05T18:22:53.326Z,11.90
2022-10-05T18:28:17.511Z,11.70
2022-10-05T18:33:39.105Z,11.60
2022-10-05T18:39:08.264Z,11.50
2022-10-05T18:44:17.284Z,11.50
2022-10-05T18:49:41.744Z,11.50
2022-10-05T18:55:01.812Z,11.50
2022-10-05T19:00:11.916Z,11.40
2022-10-05T19:05:48.730Z,11.40
2022-10-05T19:11:05.362Z,11.40
2022-10-05T19:16:26.474Z,11.30
2022-10-05T19:21:58.440Z,11.40
2022-10-05T19:27:16.334Z,11.50
2022-10-05T19:32:33.145Z,11.20
2022-10-05T19:37:50.761Z,11.10
2022-10-05T19:43:14.670Z,11.00
2022-10-05T19:48:32.751Z,10.90
2022-10-05T19:53:46.163Z,10.60
2022-10-05T19:58:50.563Z,10.60
2022-10-05T20:03:54.336Z,10.40
2022-10-05T20:09:00.501Z,10.40
2022-10-05T20:14:04.164Z,10.30
2022-10-05T20:19:36.356Z,10.20
2022-10-05T20:24:51.143Z,10.10
2022-10-05T20:29:53.955Z,10.10
2022-10-05T20:34:56.858Z,10.40
2022-10-05T20:40:00.303Z,10.20
2022-10-05T20:45:04.356Z,10.40
2022-10-05T20:50:12.182Z,10.40
2022-10-05T20:55:15.315Z,10.20
2022-10-05T21:00:18.139Z,10.20
2022-10-05T21:05:21.649Z,10.10
2022-10-05T21:10:24.753Z,10.00
2022-10-05T21:15:27.603Z,9.90
2022-10-05T21:20:30.925Z,9.80
2022-10-05T21:25:34.077Z,9.90
2022-10-05T21:30:36.782Z,9.80
2022-10-05T21:35:39.470Z,10.00
2022-10-05T21:40:43.621Z,10.00
2022-10-05T21:45:48.014Z,9.90
2022-10-05T21:50:50.769Z,9.80
2022-10-05T21:55:53.933Z,9.90
2022-10-05T22:00:56.897Z,10.10
2022-10-05T22:05:59.968Z,10.70
2022-10-05T22:11:14.380Z,10.60
2022-10-05T22:16:20.370Z,10.50
2022-10-05T22:21:23.315Z,10.40
2022-10-05T22:26:26.243Z,10.70
2022-10-05T22:31:29.233Z,10.70
2022-10-05T22:36:34.241Z,10.70
2022-10-05T22:41:37.000Z,10.60
2022-10-05T22:46:39.873Z,10.30
2022-10-05T22:51:42.822Z,10.30
2022-10-05T22:56:45.538Z,10.10
2022-10-05T23:01:48.460Z,10.00
2022-10-05T23:06:52.018Z,9.70
2022-10-05T23:11:54.765Z,9.50
2022-10-05T23:16:57.815Z,9.30
2022-10-05T23:22:00.759Z,9.20
2022-10-05T23:27:03.534Z,9.10
2022-10-05T23:32:06.238Z,9.00
2022-10-05T23:37:08.948Z,9.00
2022-10-05T23:42:11.634Z,8.90
2022-10-05T23:47:14.289Z,8.80
2022-10-05T23:52:17.024Z,8.80
2022-10-05T23:57:20.347Z,8.60
